Terminal Aerodrome Forecast
Issued by NWS Grand Forks, ND

Home | Current Version | Previous Version | Graphics & Text | Print | Product List | Glossary On
Versions: 1 2 3 4 5 6 7 8 9 10 11 12 13 14 15 16 17 18 19 20 21 22
000
FTUS43 KFGF 230539
TAFFAR
TAF
KFAR 230539Z 2306/2406 17015KT P6SM VCTS BKN050CB
      TEMPO 2306/2307 25020G30KT 3SM -TSRA
     FM230700 16015KT P6SM TSRA OVC050CB
     FM231000 18009KT P6SM SHRA OVC060
     FM231500 26007KT P6SM BKN080
     FM240000 17004KT P6SM FEW200=

USA.gov is the U.S. government's official web portal to all federal, state and local government web resources and services.